Time;durP1;ratioP1;P1;durP2;ratioP2;P2;SDS_P1;SDS_P2;PMS_P1;PMS_P2;Temp;Humidity;BMP_temperature;BMP_pressure;BME280_temperature;BME280_humidity;BME280_pressure;Samples;Min_cycle;Max_cycle;Signal;HPM_P1;HPM_P2
2021/11/29 00:01:42;;;;;;;0.30;0.30;;;4.90;99.90;;;;;;5037189;28;21207;-89
2021/11/29 00:04:08;;;;;;;0.30;0.30;;;4.90;99.90;;;;;;5039439;28;20247;-89
2021/11/29 00:06:33;;;;;;;0.20;0.20;;;4.80;99.90;;;;;;5041398;28;20959;-89
2021/11/29 00:08:59;;;;;;;0.20;0.20;;;4.90;99.90;;;;;;5011260;28;20333;-90
2021/11/29 00:11:25;;;;;;;0.20;0.20;;;4.90;99.90;;;;;;5044331;28;20223;-89
2021/11/29 00:13:51;;;;;;;1.97;1.97;;;4.90;99.90;;;;;;5009123;28;20254;-90
2021/11/29 00:16:17;;;;;;;0.30;0.30;;;5.10;99.90;;;;;;5022183;28;20906;-88
2021/11/29 00:18:42;;;;;;;0.30;0.30;;;5.10;99.90;;;;;;5045405;28;20218;-88
2021/11/29 00:21:08;;;;;;;0.30;0.30;;;5.30;99.90;;;;;;5026770;28;20230;-89
2021/11/29 00:23:34;;;;;;;0.40;0.40;;;5.60;99.90;;;;;;5026075;28;20194;-88
2021/11/29 00:26:00;;;;;;;0.30;0.30;;;5.60;99.90;;;;;;5024748;28;20226;-88
2021/11/29 00:28:26;;;;;;;0.30;0.30;;;5.50;99.90;;;;;;5040679;28;20809;-89
2021/11/29 00:30:52;;;;;;;2.23;0.67;;;5.50;99.90;;;;;;5045938;28;21103;-89
2021/11/29 00:33:18;;;;;;;0.20;0.20;;;5.40;99.90;;;;;;5030094;28;20221;-91
2021/11/29 00:35:44;;;;;;;0.30;0.30;;;5.30;99.90;;;;;;5047487;28;20193;-89
2021/11/29 00:38:11;;;;;;;0.30;0.30;;;5.30;99.90;;;;;;5009701;28;20638;-88
2021/11/29 00:40:38;;;;;;;1.40;0.50;;;5.30;99.90;;;;;;5027372;28;20225;-90
2021/11/29 00:43:04;;;;;;;0.20;0.20;;;5.30;99.90;;;;;;5010714;28;20260;-89
2021/11/29 00:45:30;;;;;;;0.20;0.20;;;5.40;99.90;;;;;;5028167;28;20227;-89
2021/11/29 00:47:56;;;;;;;0.20;0.20;;;5.50;99.90;;;;;;5026222;28;20199;-91
2021/11/29 00:50:23;;;;;;;0.20;0.20;;;5.40;99.90;;;;;;5025617;28;20229;-89
2021/11/29 00:52:49;;;;;;;0.20;0.20;;;5.30;99.90;;;;;;5057771;28;20219;-89
2021/11/29 00:55:16;;;;;;;0.20;0.20;;;5.20;99.90;;;;;;5040426;28;20318;-91
2021/11/29 00:57:42;;;;;;;0.20;0.20;;;5.10;99.90;;;;;;5026254;28;20222;-88
2021/11/29 01:00:11;;;;;;;0.20;0.20;;;5.20;99.90;;;;;;5058693;28;20218;-90
2021/11/29 01:02:37;;;;;;;0.20;0.20;;;4.90;99.90;;;;;;5025385;28;20205;-88
2021/11/29 01:05:03;;;;;;;0.40;0.40;;;4.60;99.90;;;;;;5024778;28;20211;-90
2021/11/29 01:07:29;;;;;;;0.20;0.20;;;4.70;99.90;;;;;;5040936;28;20211;-89
2021/11/29 01:09:56;;;;;;;0.20;0.20;;;4.70;99.90;;;;;;5024422;28;20486;-91
2021/11/29 01:12:22;;;;;;;0.20;0.20;;;4.80;99.90;;;;;;5023989;28;20369;-90
2021/11/29 01:14:47;;;;;;;0.40;0.40;;;4.90;99.90;;;;;;5008801;28;20231;-92
2021/11/29 01:17:14;;;;;;;0.20;0.20;;;5.10;99.90;;;;;;5030537;28;20682;-89
2021/11/29 01:19:39;;;;;;;2.00;0.60;;;5.30;99.90;;;;;;5026601;28;20249;-90
2021/11/29 01:22:05;;;;;;;0.20;0.20;;;5.10;99.90;;;;;;5034440;28;21042;-90
2021/11/29 01:24:31;;;;;;;0.30;0.30;;;5.00;99.90;;;;;;5034577;28;20218;-91
2021/11/29 01:26:58;;;;;;;0.20;0.20;;;4.90;99.90;;;;;;5044754;28;20197;-90
2021/11/29 01:29:23;;;;;;;0.17;0.17;;;4.90;99.90;;;;;;5027101;28;21040;-88
2021/11/29 01:31:50;;;;;;;0.23;0.23;;;4.80;99.90;;;;;;5027779;28;20218;-88
2021/11/29 01:34:16;;;;;;;0.20;0.20;;;4.80;99.90;;;;;;5027164;28;20379;-90
2021/11/29 01:36:42;;;;;;;0.27;0.27;;;4.70;99.90;;;;;;5027354;28;20857;-88
2021/11/29 01:39:09;;;;;;;2.10;0.83;;;4.70;99.90;;;;;;5047847;28;20241;-91
2021/11/29 01:41:35;;;;;;;0.13;0.13;;;4.70;99.90;;;;;;5055457;28;20262;-89
2021/11/29 01:44:01;;;;;;;0.63;0.57;;;5.00;99.90;;;;;;5045241;28;20221;-91
2021/11/29 01:46:27;;;;;;;6.23;1.70;;;5.10;99.90;;;;;;5042051;28;20214;-90
2021/11/29 01:48:52;;;;;;;0.67;0.27;;;5.30;99.90;;;;;;5042623;28;21113;-91
2021/11/29 01:51:18;;;;;;;0.33;0.33;;;5.60;99.90;;;;;;5028813;28;20230;-89
2021/11/29 01:53:45;;;;;;;0.30;0.30;;;5.60;99.90;;;;;;5045894;28;20197;-89
2021/11/29 01:56:11;;;;;;;0.27;0.27;;;5.50;99.90;;;;;;5046511;28;20641;-90
2021/11/29 01:58:39;;;;;;;0.93;0.93;;;5.20;99.90;;;;;;5046471;28;20210;-88
2021/11/29 02:01:16;;;;;;;0.80;0.80;;;5.20;99.90;;;;;;5046494;28;20221;-89
2021/11/29 02:03:44;;;;;;;1.03;0.87;;;5.20;99.90;;;;;;5037924;28;20218;-89
2021/11/29 02:06:10;;;;;;;0.30;0.30;;;4.90;99.90;;;;;;5026459;28;20218;-90
2021/11/29 02:08:37;;;;;;;0.30;0.30;;;4.90;99.90;;;;;;5025988;28;20202;-88
2021/11/29 02:11:04;;;;;;;0.30;0.30;;;5.00;99.90;;;;;;5046160;28;20242;-89
2021/11/29 02:13:30;;;;;;;0.20;0.20;;;5.00;99.90;;;;;;5030708;28;20593;-90
2021/11/29 02:15:56;;;;;;;0.20;0.20;;;5.10;99.90;;;;;;5058539;28;20249;-89
2021/11/29 02:18:26;;;;;;;3.07;0.50;;;5.30;99.90;;;;;;5017309;28;20226;-89
2021/11/29 02:21:14;;;;;;;0.30;0.30;;;5.50;99.90;;;;;;5028183;28;20679;-90
2021/11/29 02:23:44;;;;;;;1.60;0.30;;;5.50;99.90;;;;;;5045850;28;20221;-89
2021/11/29 02:26:10;;;;;;;0.27;0.27;;;5.40;99.90;;;;;;5059252;28;20241;-89
2021/11/29 02:28:38;;;;;;;0.30;0.30;;;5.30;99.90;;;;;;5025321;28;20313;-90
2021/11/29 02:31:13;;;;;;;0.20;0.20;;;5.30;99.90;;;;;;5038200;28;20225;-91
2021/11/29 02:33:39;;;;;;;0.93;0.30;;;5.30;99.90;;;;;;5053973;28;20212;-91
2021/11/29 02:36:05;;;;;;;0.10;0.10;;;5.30;99.90;;;;;;5025494;28;20269;-92
2021/11/29 02:38:31;;;;;;;0.10;0.10;;;5.40;99.90;;;;;;5059365;28;20198;-90
2021/11/29 02:40:57;;;;;;;0.27;0.27;;;5.50;99.90;;;;;;5027692;28;20764;-91
2021/11/29 02:43:24;;;;;;;0.43;0.43;;;5.60;99.90;;;;;;5041311;28;20711;-91
2021/11/29 02:45:49;;;;;;;0.40;0.40;;;5.50;99.90;;;;;;5058470;28;20234;-91
2021/11/29 02:48:15;;;;;;;0.23;0.23;;;5.60;99.90;;;;;;5058464;28;20241;-92
2021/11/29 02:50:41;;;;;;;0.13;0.13;;;5.70;99.90;;;;;;5026970;28;20264;-89
2021/11/29 02:53:12;;;;;;;0.40;0.40;;;5.90;99.90;;;;;;5046379;28;20750;-91
2021/11/29 02:55:40;;;;;;;0.20;0.20;;;5.90;99.90;;;;;;5028756;28;20218;-91
2021/11/29 02:58:07;;;;;;;0.20;0.20;;;6.00;99.90;;;;;;5025649;28;20229;-90
2021/11/29 03:00:34;;;;;;;0.30;0.30;;;6.10;99.90;;;;;;5016016;28;20261;-92
2021/11/29 03:03:10;;;;;;;1.33;0.67;;;6.20;99.90;;;;;;5047010;28;20249;-89
2021/11/29 03:05:36;;;;;;;6.90;0.37;;;6.20;99.90;;;;;;5030716;28;20264;-89
2021/11/29 03:08:04;;;;;;;0.20;0.20;;;6.30;99.90;;;;;;5049165;28;20263;-90
2021/11/29 03:10:31;;;;;;;0.33;0.33;;;6.40;99.90;;;;;;5033501;28;20296;-90
2021/11/29 03:12:57;;;;;;;0.30;0.30;;;6.50;99.90;;;;;;5030886;28;20217;-89
2021/11/29 03:15:23;;;;;;;0.30;0.30;;;6.30;99.90;;;;;;5053019;28;21038;-89
2021/11/29 03:17:49;;;;;;;0.30;0.20;;;5.80;99.90;;;;;;5038525;28;20218;-90
2021/11/29 03:20:15;;;;;;;0.83;0.40;;;5.60;99.90;;;;;;5048558;28;20214;-89
2021/11/29 03:22:41;;;;;;;0.57;0.57;;;5.60;99.90;;;;;;5029288;28;20273;-93
2021/11/29 03:25:10;;;;;;;2.00;0.40;;;5.50;99.90;;;;;;5021868;28;20991;-89
2021/11/29 03:27:38;;;;;;;0.20;0.20;;;5.40;99.90;;;;;;5037430;28;20353;-90
2021/11/29 03:30:04;;;;;;;0.20;0.20;;;5.40;99.90;;;;;;5059363;28;20599;-91
2021/11/29 03:32:30;;;;;;;0.23;0.23;;;5.40;99.90;;;;;;5027142;28;20222;-91
2021/11/29 03:34:56;;;;;;;0.20;0.20;;;5.30;99.90;;;;;;5027035;28;20250;-88
2021/11/29 03:37:22;;;;;;;0.50;0.50;;;5.30;99.90;;;;;;5037157;28;20224;-88
2021/11/29 03:39:48;;;;;;;0.83;0.83;;;5.30;99.90;;;;;;5057511;28;20228;-90
2021/11/29 03:42:14;;;;;;;1.23;0.63;;;5.30;99.90;;;;;;5051519;28;20218;-88
2021/11/29 03:44:40;;;;;;;0.20;0.20;;;5.40;99.90;;;;;;5028775;28;20585;-91
2021/11/29 03:47:06;;;;;;;0.30;0.30;;;5.30;99.90;;;;;;5047195;28;20202;-90
2021/11/29 03:49:32;;;;;;;1.30;0.60;;;5.40;99.90;;;;;;5045766;28;20222;-89
2021/11/29 03:51:58;;;;;;;0.20;0.20;;;5.40;99.90;;;;;;5047275;28;20228;-91
2021/11/29 03:54:24;;;;;;;0.20;0.20;;;5.50;99.90;;;;;;5047837;28;20221;-90
2021/11/29 03:56:51;;;;;;;0.30;0.30;;;5.40;99.90;;;;;;5048013;28;20213;-91
2021/11/29 03:59:17;;;;;;;0.23;0.23;;;5.40;99.90;;;;;;5048150;28;20760;-91
2021/11/29 04:01:43;;;;;;;0.20;0.20;;;5.30;99.90;;;;;;5048606;28;20758;-90
2021/11/29 04:04:09;;;;;;;0.50;0.50;;;5.30;99.90;;;;;;5036252;28;20219;-91
2021/11/29 04:06:35;;;;;;;0.20;0.20;;;5.30;99.90;;;;;;5028950;28;20224;-91
2021/11/29 04:09:04;;;;;;;0.17;0.17;;;5.30;99.90;;;;;;5060216;28;20723;-91
2021/11/29 04:11:31;;;;;;;0.93;0.73;;;5.40;99.90;;;;;;5028665;28;20215;-90
2021/11/29 04:13:57;;;;;;;0.20;0.20;;;5.40;99.90;;;;;;5028158;28;20265;-91
2021/11/29 04:16:22;;;;;;;0.60;0.60;;;5.50;99.90;;;;;;5043967;28;20223;-90
2021/11/29 04:18:49;;;;;;;0.93;0.93;;;5.50;99.90;;;;;;5028824;28;20289;-91
2021/11/29 04:21:16;;;;;;;2.93;0.40;;;5.50;99.90;;;;;;5027623;28;20272;-90
2021/11/29 04:23:44;;;;;;;0.43;0.40;;;5.40;99.90;;;;;;5028116;28;20186;-91
2021/11/29 04:26:13;;;;;;;0.47;0.47;;;5.40;99.90;;;;;;5048151;28;20186;-90
2021/11/29 04:28:40;;;;;;;4.43;0.83;;;5.40;99.90;;;;;;5030504;28;20218;-89
2021/11/29 04:31:06;;;;;;;0.10;0.10;;;5.40;99.90;;;;;;5040791;28;20234;-90
2021/11/29 04:33:32;;;;;;;0.20;0.20;;;5.40;99.90;;;;;;5040459;28;20249;-90
2021/11/29 04:35:58;;;;;;;4.93;0.60;;;5.40;99.90;;;;;;5028611;28;20194;-90
2021/11/29 04:38:24;;;;;;;0.40;0.40;;;5.40;99.90;;;;;;5045925;28;20205;-90
2021/11/29 04:40:50;;;;;;;0.20;0.20;;;5.30;99.90;;;;;;5024163;28;20573;-90
2021/11/29 04:43:16;;;;;;;2.07;0.60;;;5.20;99.90;;;;;;5023535;28;20248;-91
2021/11/29 04:45:43;;;;;;;0.20;0.20;;;5.20;99.90;;;;;;5023981;28;20284;-90
2021/11/29 04:48:09;;;;;;;0.20;0.20;;;5.20;99.90;;;;;;5013257;28;20223;-88
2021/11/29 04:50:35;;;;;;;0.13;0.13;;;5.20;99.90;;;;;;5016981;28;20223;-89
2021/11/29 04:53:01;;;;;;;0.20;0.20;;;5.20;99.90;;;;;;5046960;28;20264;-89
2021/11/29 04:55:27;;;;;;;0.20;0.20;;;5.20;99.90;;;;;;5047090;28;20693;-90
2021/11/29 04:57:53;;;;;;;0.53;0.53;;;5.10;99.90;;;;;;5046951;28;20214;-89
2021/11/29 05:00:20;;;;;;;0.67;0.67;;;5.00;99.90;;;;;;5046830;28;20222;-90
2021/11/29 05:02:47;;;;;;;0.20;0.20;;;4.90;99.90;;;;;;5044983;28;20418;-90
2021/11/29 05:05:13;;;;;;;0.20;0.20;;;4.90;99.90;;;;;;5028406;28;20248;-90
2021/11/29 05:07:38;;;;;;;0.10;0.10;;;4.80;99.90;;;;;;5009899;28;20226;-90
2021/11/29 05:10:06;;;;;;;6.90;0.60;;;4.80;99.90;;;;;;5026018;28;20234;-91
2021/11/29 05:12:32;;;;;;;0.50;0.50;;;4.80;99.90;;;;;;5034720;28;20216;-90
2021/11/29 05:14:58;;;;;;;0.40;0.40;;;4.70;99.90;;;;;;5043294;28;20234;-90
2021/11/29 05:17:24;;;;;;;0.20;0.20;;;4.70;99.90;;;;;;5027498;28;20276;-90
2021/11/29 05:19:50;;;;;;;0.20;0.20;;;4.70;99.90;;;;;;5042723;28;20214;-89
2021/11/29 05:22:16;;;;;;;13.00;0.67;;;4.70;99.90;;;;;;5047799;28;20252;-90
2021/11/29 05:24:42;;;;;;;5.30;0.40;;;4.70;99.90;;;;;;5036615;28;20295;-91
2021/11/29 05:27:08;;;;;;;0.20;0.20;;;4.60;99.90;;;;;;5027421;28;20219;-89
2021/11/29 05:29:34;;;;;;;0.47;0.47;;;4.70;99.90;;;;;;5026723;28;20485;-91
2021/11/29 05:32:00;;;;;;;0.30;0.30;;;4.70;99.90;;;;;;5045559;28;20257;-90
2021/11/29 05:34:26;;;;;;;0.20;0.20;;;4.70;99.90;;;;;;5046816;28;20229;-90
2021/11/29 05:36:52;;;;;;;1.07;0.67;;;4.60;99.90;;;;;;5035542;28;20229;-91
2021/11/29 05:39:18;;;;;;;0.20;0.20;;;4.60;99.90;;;;;;5032777;28;20293;-89
2021/11/29 05:41:45;;;;;;;0.33;0.33;;;4.60;99.90;;;;;;5045277;28;20998;-90
2021/11/29 05:44:13;;;;;;;0.10;0.10;;;4.60;99.90;;;;;;5027687;28;20191;-89
2021/11/29 05:46:39;;;;;;;0.30;0.30;;;4.60;99.90;;;;;;5043596;28;20217;-89
2021/11/29 05:49:04;;;;;;;0.37;0.37;;;4.60;99.90;;;;;;5045898;28;20217;-91
2021/11/29 05:51:30;;;;;;;0.20;0.20;;;4.60;99.90;;;;;;5045429;28;20284;-90
2021/11/29 05:53:57;;;;;;;0.20;0.20;;;4.60;99.90;;;;;;5060355;28;20200;-87
2021/11/29 05:56:24;;;;;;;0.20;0.20;;;4.60;99.90;;;;;;5059954;28;20199;-88
2021/11/29 05:58:50;;;;;;;0.30;0.30;;;4.50;99.90;;;;;;5026406;28;20221;-88
2021/11/29 06:01:16;;;;;;;0.30;0.30;;;4.50;99.90;;;;;;5039611;28;20639;-89
2021/11/29 06:03:44;;;;;;;0.30;0.30;;;4.40;99.90;;;;;;5036410;28;20222;-88
2021/11/29 06:06:10;;;;;;;0.50;0.50;;;4.40;99.90;;;;;;5025548;28;20222;-90
2021/11/29 06:08:36;;;;;;;0.40;0.40;;;4.50;99.90;;;;;;5025795;28;20199;-91
2021/11/29 06:11:02;;;;;;;0.20;0.20;;;4.50;99.90;;;;;;5025048;28;20959;-90
2021/11/29 06:13:27;;;;;;;0.30;0.30;;;4.50;99.90;;;;;;5009657;28;20265;-90
2021/11/29 06:15:53;;;;;;;0.20;0.20;;;4.60;99.90;;;;;;5017141;28;20328;-91
2021/11/29 06:18:19;;;;;;;0.30;0.30;;;4.70;99.90;;;;;;5057886;28;20246;-90
2021/11/29 06:20:45;;;;;;;0.43;0.43;;;4.80;99.90;;;;;;5039915;28;20222;-90
2021/11/29 06:23:11;;;;;;;0.47;0.47;;;4.70;99.90;;;;;;5026318;28;20450;-91
2021/11/29 06:25:38;;;;;;;0.40;0.30;;;4.60;99.90;;;;;;5024692;28;20268;-90
2021/11/29 06:28:06;;;;;;;0.43;0.40;;;4.50;99.90;;;;;;5036854;28;20672;-90
2021/11/29 06:30:32;;;;;;;8.40;0.60;;;4.50;99.90;;;;;;5043651;28;20590;-91
2021/11/29 06:32:58;;;;;;;0.67;0.67;;;4.30;99.90;;;;;;5045305;28;20248;-90
2021/11/29 06:35:24;;;;;;;0.30;0.30;;;4.20;99.90;;;;;;5027505;28;20226;-90
2021/11/29 06:37:57;;;;;;;0.33;0.33;;;4.10;99.90;;;;;;5027091;28;20268;-91
2021/11/29 06:40:23;;;;;;;0.40;0.40;;;4.00;99.90;;;;;;5045466;28;20668;-90
2021/11/29 06:42:49;;;;;;;0.20;0.20;;;3.70;99.90;;;;;;5044593;28;20226;-91
2021/11/29 06:45:15;;;;;;;7.00;0.70;;;3.50;99.90;;;;;;5040335;28;20579;-90
2021/11/29 06:47:42;;;;;;;0.30;0.30;;;3.50;99.90;;;;;;5007045;28;20197;-91
2021/11/29 06:50:10;;;;;;;0.30;0.30;;;3.50;99.90;;;;;;5027863;28;20312;-90
2021/11/29 06:52:36;;;;;;;0.90;0.63;;;3.50;99.90;;;;;;5043780;28;20740;-90
2021/11/29 06:55:03;;;;;;;3.67;0.70;;;3.50;99.90;;;;;;5055998;28;20210;-90
2021/11/29 06:57:29;;;;;;;1.17;0.40;;;3.50;99.90;;;;;;5028005;28;20245;-91
2021/11/29 06:59:55;;;;;;;0.50;0.50;;;3.60;99.90;;;;;;5041670;28;20374;-91
2021/11/29 07:02:26;;;;;;;3.80;0.83;;;3.50;99.90;;;;;;5044551;28;20182;-91
2021/11/29 07:04:53;;;;;;;1.07;1.07;;;3.50;99.90;;;;;;5044393;28;20214;-90
2021/11/29 07:07:19;;;;;;;0.30;0.30;;;3.40;99.90;;;;;;5031551;28;20253;-91
2021/11/29 07:09:45;;;;;;;0.20;0.20;;;3.50;99.90;;;;;;5057192;28;20230;-91
2021/11/29 07:12:13;;;;;;;0.30;0.30;;;3.40;99.90;;;;;;5023719;28;20351;-90
2021/11/29 07:14:39;;;;;;;0.50;0.50;;;3.40;99.90;;;;;;5024971;28;20294;-90
2021/11/29 07:17:04;;;;;;;2.20;0.50;;;3.50;99.90;;;;;;5044287;28;20198;-92
2021/11/29 07:19:30;;;;;;;0.73;0.73;;;3.60;99.90;;;;;;5041612;28;20609;-91
2021/11/29 07:21:56;;;;;;;0.40;0.40;;;3.60;99.90;;;;;;5043127;28;20233;-91
2021/11/29 07:24:22;;;;;;;6.80;0.60;;;3.60;99.90;;;;;;5035978;28;20237;-90
2021/11/29 07:26:48;;;;;;;0.60;0.60;;;3.70;99.90;;;;;;5025030;28;20268;-90
2021/11/29 07:29:14;;;;;;;0.60;0.57;;;3.70;99.90;;;;;;5045082;28;20217;-90
2021/11/29 07:31:42;;;;;;;0.57;0.57;;;3.70;99.90;;;;;;5028072;28;20226;-90
2021/11/29 07:34:08;;;;;;;0.30;0.30;;;3.70;99.90;;;;;;5040032;28;20222;-91
2021/11/29 07:36:34;;;;;;;0.20;0.20;;;3.80;99.90;;;;;;5023721;28;20222;-90
2021/11/29 07:39:00;;;;;;;0.50;0.50;;;4.00;99.90;;;;;;5022784;28;20564;-90
2021/11/29 07:41:26;;;;;;;1.70;0.50;;;4.20;99.90;;;;;;5022386;28;20202;-89
2021/11/29 07:43:52;;;;;;;1.03;1.03;;;4.40;99.90;;;;;;5040841;28;20232;-90
2021/11/29 07:46:18;;;;;;;1.90;1.07;;;4.70;99.90;;;;;;5040458;28;20257;-90
2021/11/29 07:48:44;;;;;;;0.47;0.47;;;5.00;99.90;;;;;;5035528;28;20218;-90
2021/11/29 07:51:10;;;;;;;0.90;0.90;;;5.20;99.90;;;;;;5043708;28;20322;-90
2021/11/29 07:53:36;;;;;;;1.27;0.80;;;5.10;99.90;;;;;;5026556;28;20269;-89
2021/11/29 07:56:02;;;;;;;0.50;0.50;;;4.90;99.90;;;;;;5025058;28;20215;-90
2021/11/29 07:58:28;;;;;;;1.53;1.20;;;4.50;99.90;;;;;;5059593;28;20217;-90
2021/11/29 08:00:54;;;;;;;0.53;0.53;;;4.50;99.90;;;;;;5026861;28;20276;-90
2021/11/29 08:03:20;;;;;;;0.57;0.57;;;4.70;99.90;;;;;;5041989;28;20280;-91
2021/11/29 08:05:47;;;;;;;0.80;0.80;;;4.70;99.90;;;;;;5026042;28;20205;-90
2021/11/29 08:08:13;;;;;;;0.57;0.57;;;4.60;99.90;;;;;;5026473;28;20661;-91
2021/11/29 08:10:39;;;;;;;0.67;0.67;;;4.70;99.90;;;;;;5042609;28;20227;-90
2021/11/29 08:13:08;;;;;;;0.60;0.60;;;4.70;99.90;;;;;;5024359;28;20218;-88
2021/11/29 08:15:36;;;;;;;0.73;0.73;;;4.60;99.90;;;;;;5045756;28;20244;-89
2021/11/29 08:18:07;;;;;;;0.77;0.70;;;4.40;99.90;;;;;;5048745;28;20648;-90
2021/11/29 08:20:33;;;;;;;0.23;0.23;;;4.40;99.90;;;;;;5057809;28;20276;-90
2021/11/29 08:22:59;;;;;;;0.33;0.33;;;4.50;99.90;;;;;;5059998;28;20668;-90
2021/11/29 08:25:25;;;;;;;0.50;0.50;;;4.70;99.90;;;;;;5040947;28;21204;-88
2021/11/29 08:27:51;;;;;;;0.20;0.20;;;4.80;99.90;;;;;;5055764;28;20484;-90
2021/11/29 08:30:20;;;;;;;0.20;0.20;;;4.80;99.90;;;;;;5046615;28;20246;-89
2021/11/29 08:32:47;;;;;;;0.67;0.53;;;4.90;99.90;;;;;;5032009;28;20186;-90
2021/11/29 08:35:16;;;;;;;0.53;0.53;;;4.90;99.90;;;;;;5058475;28;20186;-83
2021/11/29 08:37:49;;;;;;;7.23;5.70;;;4.90;99.90;;;;;;5048458;28;20257;-84
2021/11/29 08:40:19;;;;;;;6.80;4.40;;;4.80;99.90;;;;;;5032976;28;20214;-85
2021/11/29 08:42:45;;;;;;;1.47;1.37;;;4.70;99.90;;;;;;5032846;28;20244;-87
2021/11/29 08:45:12;;;;;;;2.17;1.67;;;4.60;99.90;;;;;;5016583;28;20219;-87
2021/11/29 08:47:37;;;;;;;1.47;1.37;;;4.70;99.90;;;;;;5024696;28;20667;-86
2021/11/29 08:50:04;;;;;;;1.40;1.07;;;4.60;99.90;;;;;;5055218;28;20230;-87
2021/11/29 08:52:34;;;;;;;2.53;1.47;;;4.70;99.90;;;;;;5054566;28;20300;-86
2021/11/29 08:55:05;;;;;;;2.27;1.70;;;4.80;99.90;;;;;;5039102;28;20230;-87
2021/11/29 08:57:32;;;;;;;3.90;1.50;;;4.80;99.90;;;;;;5033447;28;20222;-86
2021/11/29 08:59:58;;;;;;;1.87;1.10;;;4.80;99.90;;;;;;5042759;28;20313;-87
2021/11/29 09:02:24;;;;;;;1.90;1.43;;;4.90;99.90;;;;;;5026703;28;20187;-86
2021/11/29 09:04:50;;;;;;;1.20;1.07;;;5.00;99.90;;;;;;5042857;28;20711;-86
2021/11/29 09:07:16;;;;;;;0.80;0.70;;;5.10;99.90;;;;;;5024849;28;20234;-88
2021/11/29 09:09:42;;;;;;;3.33;3.00;;;5.30;99.90;;;;;;5009906;28;20214;-83
2021/11/29 09:12:08;;;;;;;1.13;1.10;;;5.50;99.90;;;;;;5003982;28;20222;-83
2021/11/29 09:14:34;;;;;;;10.67;2.70;;;5.50;99.90;;;;;;5021719;28;20249;-82
2021/11/29 09:17:00;;;;;;;1.40;1.10;;;5.60;99.90;;;;;;5004220;28;20199;-88
2021/11/29 09:19:26;;;;;;;4.67;0.63;;;5.60;99.90;;;;;;5042740;28;20189;-87
2021/11/29 09:21:54;;;;;;;1.50;1.30;;;5.60;99.90;;;;;;5042112;28;20249;-87
2021/11/29 09:24:20;;;;;;;0.93;0.73;;;5.60;99.90;;;;;;5046231;28;20296;-86
2021/11/29 09:26:46;;;;;;;2.57;1.20;;;5.70;99.90;;;;;;5037631;28;20226;-84
2021/11/29 09:29:12;;;;;;;1.37;1.03;;;5.80;99.90;;;;;;5025404;28;20214;-83
2021/11/29 09:31:38;;;;;;;3.77;1.80;;;5.90;99.90;;;;;;5025276;28;21060;-82
2021/11/29 09:34:04;;;;;;;3.20;1.83;;;6.00;99.90;;;;;;5040116;28;20218;-83
2021/11/29 09:36:29;;;;;;;3.23;1.83;;;6.20;99.90;;;;;;5040502;28;20625;-84
2021/11/29 09:38:55;;;;;;;11.77;1.97;;;6.30;99.90;;;;;;5057229;28;20215;-85
2021/11/29 09:41:24;;;;;;;0.97;0.40;;;6.40;99.90;;;;;;5043910;28;20218;-85
2021/11/29 09:43:51;;;;;;;0.60;0.60;;;6.40;99.90;;;;;;5045259;28;20935;-87
2021/11/29 09:46:17;;;;;;;2.20;2.00;;;6.60;99.90;;;;;;5045194;28;20564;-86
2021/11/29 09:48:43;;;;;;;1.90;1.43;;;6.90;99.90;;;;;;5058770;28;20249;-84
2021/11/29 09:51:09;;;;;;;1.33;1.23;;;7.30;99.90;;;;;;5025741;28;20238;-86
2021/11/29 09:53:34;;;;;;;1.17;1.17;;;7.30;99.90;;;;;;5041599;28;20222;-87
2021/11/29 09:56:01;;;;;;;1.13;0.70;;;7.50;99.90;;;;;;5057356;28;21071;-86
2021/11/29 09:58:29;;;;;;;2.07;1.43;;;7.40;99.90;;;;;;5019115;28;20966;-88
2021/11/29 10:00:58;;;;;;;0.60;0.60;;;7.30;99.90;;;;;;5045695;28;20573;-86
2021/11/29 10:03:24;;;;;;;0.43;0.43;;;7.30;99.90;;;;;;5044791;28;20217;-87
2021/11/29 10:05:50;;;;;;;3.43;1.20;;;7.10;99.90;;;;;;5038368;28;20563;-86
2021/11/29 10:08:24;;;;;;;0.63;0.63;;;7.20;99.90;;;;;;5026871;28;20229;-86
2021/11/29 10:10:53;;;;;;;4.73;0.67;;;7.30;99.90;;;;;;5045528;28;20217;-86
2021/11/29 10:13:20;;;;;;;1.40;0.90;;;7.50;99.90;;;;;;5044964;28;20237;-86
2021/11/29 10:15:47;;;;;;;1.77;1.50;;;7.80;99.90;;;;;;5030251;28;20300;-90
2021/11/29 10:18:19;;;;;;;3.27;1.67;;;7.80;99.90;;;;;;5040575;28;20242;-88
2021/11/29 10:20:55;;;;;;;1.33;0.70;;;7.60;99.90;;;;;;5031150;28;20237;-86
2021/11/29 10:23:41;;;;;;;0.80;0.67;;;7.10;99.90;;;;;;5042676;28;20241;-86
2021/11/29 10:26:20;;;;;;;1.33;1.23;;;6.70;99.90;;;;;;5024307;28;20186;-87
2021/11/29 10:28:58;;;;;;;2.07;0.67;;;6.60;99.90;;;;;;5025550;28;20255;-88
2021/11/29 10:31:42;;;;;;;1.20;1.20;;;6.60;99.90;;;;;;5025106;28;20230;-85
2021/11/29 10:34:09;;;;;;;0.63;0.63;;;6.70;99.90;;;;;;5027362;28;20246;-84
2021/11/29 10:36:41;;;;;;;1.07;1.07;;;6.70;99.90;;;;;;5037433;28;20224;-85
2021/11/29 10:39:21;;;;;;;1.30;1.20;;;6.80;99.90;;;;;;5044946;28;20221;-86
2021/11/29 10:42:00;;;;;;;2.87;0.90;;;6.90;99.90;;;;;;5048533;28;20214;-87
2021/11/29 10:44:33;;;;;;;0.50;0.43;;;7.10;99.90;;;;;;5058811;28;20253;-87
2021/11/29 10:47:02;;;;;;;0.70;0.70;;;7.10;99.90;;;;;;5024540;28;20213;-84
2021/11/29 10:49:32;;;;;;;0.67;0.50;;;6.90;99.90;;;;;;5046701;28;20221;-87
2021/11/29 10:52:01;;;;;;;0.50;0.50;;;6.90;99.90;;;;;;5044855;28;20224;-87
2021/11/29 10:54:30;;;;;;;0.20;0.20;;;6.90;99.90;;;;;;5032174;28;20245;-89
2021/11/29 10:56:56;;;;;;;0.73;0.73;;;6.90;99.90;;;;;;5040689;28;20240;-86
2021/11/29 10:59:27;;;;;;;0.60;0.60;;;6.80;99.90;;;;;;5039665;28;20236;-87
2021/11/29 11:01:54;;;;;;;0.43;0.43;;;6.50;99.90;;;;;;5023850;28;20190;-88
2021/11/29 11:04:32;;;;;;;0.73;0.63;;;6.20;99.90;;;;;;5041244;28;20224;-88
2021/11/29 11:07:01;;;;;;;0.80;0.80;;;6.20;99.90;;;;;;5040841;28;20210;-88
2021/11/29 11:09:30;;;;;;;2.10;1.07;;;6.40;99.90;;;;;;5030234;28;20230;-85
2021/11/29 11:12:11;;;;;;;0.30;0.30;;;6.60;99.90;;;;;;5030518;28;20307;-86
2021/11/29 11:14:39;;;;;;;1.83;0.83;;;6.60;99.90;;;;;;5038329;28;20241;-88
2021/11/29 11:17:08;;;;;;;17.73;1.93;;;6.70;99.90;;;;;;5029766;28;20194;-86
2021/11/29 11:19:40;;;;;;;0.80;0.50;;;6.80;99.90;;;;;;5039067;28;20198;-91
2021/11/29 11:22:09;;;;;;;2.53;0.93;;;6.70;99.90;;;;;;5053894;28;20218;-87
2021/11/29 11:24:38;;;;;;;0.90;0.80;;;6.80;99.90;;;;;;5037081;28;20328;-85
2021/11/29 11:27:05;;;;;;;0.60;0.60;;;6.90;99.90;;;;;;5059643;28;20214;-86
2021/11/29 11:29:44;;;;;;;0.67;0.53;;;7.00;99.90;;;;;;5043760;28;20750;-87
2021/11/29 11:32:18;;;;;;;0.83;0.60;;;7.20;99.90;;;;;;5058534;28;20217;-88
2021/11/29 11:34:49;;;;;;;0.53;0.53;;;7.20;99.90;;;;;;5025492;28;20190;-89
2021/11/29 11:37:17;;;;;;;0.70;0.70;;;7.30;99.90;;;;;;5025212;28;20222;-89
2021/11/29 11:39:45;;;;;;;0.53;0.53;;;7.30;99.90;;;;;;5024087;28;20268;-89
2021/11/29 11:42:11;;;;;;;1.83;1.30;;;7.50;99.90;;;;;;5033862;28;20275;-87
2021/11/29 11:44:39;;;;;;;2.00;1.13;;;7.70;99.90;;;;;;5044127;28;20268;-88
2021/11/29 11:47:06;;;;;;;0.60;0.60;;;8.00;99.90;;;;;;5045177;28;20193;-89
2021/11/29 11:49:43;;;;;;;0.83;0.73;;;8.30;99.90;;;;;;5062366;28;20186;-89
2021/11/29 11:52:13;;;;;;;0.30;0.30;;;8.60;99.90;;;;;;5028594;28;20225;-89
2021/11/29 11:54:40;;;;;;;0.57;0.57;;;8.60;99.90;;;;;;5046608;28;20230;-92
2021/11/29 11:57:14;;;;;;;0.53;0.53;;;8.60;99.90;;;;;;5024433;28;20226;-91
2021/11/29 11:59:54;;;;;;;0.20;0.20;;;8.40;99.90;;;;;;5025071;28;20222;-91
2021/11/29 12:02:36;;;;;;;0.30;0.30;;;8.40;99.90;;;;;;5031384;28;20283;-89
2021/11/29 12:05:25;;;;;;;0.50;0.50;;;8.30;99.90;;;;;;5048282;28;20212;-92
2021/11/29 12:07:52;;;;;;;0.50;0.50;;;8.30;99.90;;;;;;5029193;28;20194;-90
2021/11/29 12:10:38;;;;;;;0.20;0.20;;;8.30;99.90;;;;;;5047825;28;20229;-90
2021/11/29 12:13:11;;;;;;;0.63;0.30;;;8.20;99.90;;;;;;5061735;28;20565;-91
2021/11/29 12:15:51;;;;;;;0.10;0.10;;;8.30;99.90;;;;;;5039959;28;20242;-89
2021/11/29 12:18:41;;;;;;;0.40;0.40;;;8.40;99.90;;;;;;5046854;28;20229;-89
2021/11/29 12:21:16;;;;;;;0.33;0.33;;;8.20;99.90;;;;;;5061665;28;20594;-84
2021/11/29 12:23:48;;;;;;;0.60;0.60;;;8.10;99.90;;;;;;5036573;28;20214;-88
2021/11/29 12:26:14;;;;;;;0.40;0.40;;;8.00;99.90;;;;;;5026043;28;20193;-86
2021/11/29 12:28:43;;;;;;;0.40;0.40;;;7.90;99.90;;;;;;5043636;28;20619;-87
2021/11/29 12:31:35;;;;;;;0.50;0.50;;;7.90;99.90;;;;;;5026620;28;20237;-85
2021/11/29 12:34:06;;;;;;;4.37;0.50;;;7.80;99.90;;;;;;5027020;28;20276;-85
2021/11/29 12:36:56;;;;;;;0.30;0.30;;;7.80;99.90;;;;;;5042012;28;20256;-84
2021/11/29 12:39:44;;;;;;;0.30;0.30;;;7.90;99.90;;;;;;5050861;28;20265;-85
2021/11/29 12:42:19;;;;;;;0.70;0.70;;;8.00;99.90;;;;;;5037411;28;20624;-84
2021/11/29 12:45:03;;;;;;;0.63;0.63;;;8.10;99.90;;;;;;5055371;28;20280;-85
2021/11/29 12:47:38;;;;;;;0.70;0.30;;;8.40;99.90;;;;;;5025271;28;20331;-88
2021/11/29 12:50:25;;;;;;;0.30;0.30;;;8.60;99.90;;;;;;5025246;28;20196;-90
2021/11/29 12:52:52;;;;;;;0.77;0.50;;;8.90;99.90;;;;;;5039014;28;20197;-93
2021/11/29 12:55:20;;;;;;;0.23;0.23;;;9.30;99.90;;;;;;5049154;28;20290;-85
2021/11/29 12:57:49;;;;;;;1.70;1.00;;;9.60;99.90;;;;;;5044965;28;20301;-84
2021/11/29 13:00:25;;;;;;;0.40;0.40;;;9.70;99.90;;;;;;5043410;28;20341;-86
2021/11/29 13:02:57;;;;;;;0.73;0.73;;;9.60;99.90;;;;;;5028290;28;20234;-84